sensor_id;sensor_type;location;lat;lon;timestamp;temperature;humidity
22917;DHT22;11624;53.250;7.456;2024-01-16T00:01:10;6.79;57.26
22917;DHT22;11624;53.250;7.456;2024-01-16T00:03:38;6.81;57.22
22917;DHT22;11624;53.250;7.456;2024-01-16T00:06:07;6.81;57.16
22917;DHT22;11624;53.250;7.456;2024-01-16T00:08:36;6.78;56.99
22917;DHT22;11624;53.250;7.456;2024-01-16T00:11:04;6.72;56.90
22917;DHT22;11624;53.250;7.456;2024-01-16T00:13:33;6.61;56.87
22917;DHT22;11624;53.250;7.456;2024-01-16T00:16:03;6.59;56.68
22917;DHT22;11624;53.250;7.456;2024-01-16T00:18:32;6.55;56.59
22917;DHT22;11624;53.250;7.456;2024-01-16T00:21:01;6.48;56.56
22917;DHT22;11624;53.250;7.456;2024-01-16T00:23:30;6.44;56.48
22917;DHT22;11624;53.250;7.456;2024-01-16T00:26:00;6.39;56.36
22917;DHT22;11624;53.250;7.456;2024-01-16T00:28:28;6.29;56.27
22917;DHT22;11624;53.250;7.456;2024-01-16T00:30:57;6.24;56.09
22917;DHT22;11624;53.250;7.456;2024-01-16T00:33:26;6.22;56.00
22917;DHT22;11624;53.250;7.456;2024-01-16T00:35:55;6.14;56.13
22917;DHT22;11624;53.250;7.456;2024-01-16T00:38:24;6.11;56.16
22917;DHT22;11624;53.250;7.456;2024-01-16T00:40:52;6.10;56.36
22917;DHT22;11624;53.250;7.456;2024-01-16T00:43:21;6.05;56.60
22917;DHT22;11624;53.250;7.456;2024-01-16T00:45:49;6.02;56.81
22917;DHT22;11624;53.250;7.456;2024-01-16T00:48:18;6.00;57.24
22917;DHT22;11624;53.250;7.456;2024-01-16T00:50:49;6.06;57.48
22917;DHT22;11624;53.250;7.456;2024-01-16T00:53:18;6.12;57.52
22917;DHT22;11624;53.250;7.456;2024-01-16T00:55:45;6.20;57.46
22917;DHT22;11624;53.250;7.456;2024-01-16T00:58:14;6.16;57.55
22917;DHT22;11624;53.250;7.456;2024-01-16T01:00:42;6.15;57.50
22917;DHT22;11624;53.250;7.456;2024-01-16T01:03:11;6.21;57.48
22917;DHT22;11624;53.250;7.456;2024-01-16T01:05:39;6.19;57.70
22917;DHT22;11624;53.250;7.456;2024-01-16T01:08:09;6.20;57.65
22917;DHT22;11624;53.250;7.456;2024-01-16T01:10:38;6.20;57.73
22917;DHT22;11624;53.250;7.456;2024-01-16T01:13:06;6.24;57.91
22917;DHT22;11624;53.250;7.456;2024-01-16T01:15:35;6.31;57.75
22917;DHT22;11624;53.250;7.456;2024-01-16T01:18:04;6.26;57.80
22917;DHT22;11624;53.250;7.456;2024-01-16T01:20:33;6.34;57.68
22917;DHT22;11624;53.250;7.456;2024-01-16T01:23:02;6.25;57.61
22917;DHT22;11624;53.250;7.456;2024-01-16T01:25:32;6.26;57.54
22917;DHT22;11624;53.250;7.456;2024-01-16T01:28:00;6.27;57.53
22917;DHT22;11624;53.250;7.456;2024-01-16T01:30:28;6.27;57.41
22917;DHT22;11624;53.250;7.456;2024-01-16T01:32:57;6.24;57.52
22917;DHT22;11624;53.250;7.456;2024-01-16T01:35:26;6.21;57.32
22917;DHT22;11624;53.250;7.456;2024-01-16T01:37:54;6.12;57.65
22917;DHT22;11624;53.250;7.456;2024-01-16T01:40:23;6.07;57.61
22917;DHT22;11624;53.250;7.456;2024-01-16T01:42:53;6.10;57.78
22917;DHT22;11624;53.250;7.456;2024-01-16T01:45:21;6.09;57.69
22917;DHT22;11624;53.250;7.456;2024-01-16T01:47:50;6.07;57.64
22917;DHT22;11624;53.250;7.456;2024-01-16T01:50:19;6.04;57.58
22917;DHT22;11624;53.250;7.456;2024-01-16T01:52:47;5.98;57.63
22917;DHT22;11624;53.250;7.456;2024-01-16T01:55:16;6.00;57.62
22917;DHT22;11624;53.250;7.456;2024-01-16T01:57:44;6.00;57.50
22917;DHT22;11624;53.250;7.456;2024-01-16T02:00:15;5.97;57.35
22917;DHT22;11624;53.250;7.456;2024-01-16T02:02:46;5.96;57.51
22917;DHT22;11624;53.250;7.456;2024-01-16T02:05:15;5.94;57.38
22917;DHT22;11624;53.250;7.456;2024-01-16T02:07:43;5.84;57.58
22917;DHT22;11624;53.250;7.456;2024-01-16T02:10:12;5.90;57.73
22917;DHT22;11624;53.250;7.456;2024-01-16T02:12:41;5.89;57.93
22917;DHT22;11624;53.250;7.456;2024-01-16T02:15:09;5.97;58.03
22917;DHT22;11624;53.250;7.456;2024-01-16T02:17:39;6.06;57.85
22917;DHT22;11624;53.250;7.456;2024-01-16T02:20:09;6.08;57.98
22917;DHT22;11624;53.250;7.456;2024-01-16T02:22:38;6.09;57.97
22917;DHT22;11624;53.250;7.456;2024-01-16T02:25:09;6.12;57.84
22917;DHT22;11624;53.250;7.456;2024-01-16T02:27:38;6.02;58.25
22917;DHT22;11624;53.250;7.456;2024-01-16T02:30:07;6.11;58.06
22917;DHT22;11624;53.250;7.456;2024-01-16T02:32:35;6.09;58.05
22917;DHT22;11624;53.250;7.456;2024-01-16T02:35:05;6.16;57.89
22917;DHT22;11624;53.250;7.456;2024-01-16T02:37:33;6.17;57.68
22917;DHT22;11624;53.250;7.456;2024-01-16T02:40:02;6.09;57.74
22917;DHT22;11624;53.250;7.456;2024-01-16T02:42:34;6.06;57.90
22917;DHT22;11624;53.250;7.456;2024-01-16T02:45:04;6.13;57.64
22917;DHT22;11624;53.250;7.456;2024-01-16T02:47:33;6.14;57.50
22917;DHT22;11624;53.250;7.456;2024-01-16T02:50:03;6.11;57.44
22917;DHT22;11624;53.250;7.456;2024-01-16T02:52:32;6.09;57.77
22917;DHT22;11624;53.250;7.456;2024-01-16T02:55:00;6.20;57.86
22917;DHT22;11624;53.250;7.456;2024-01-16T02:57:29;6.25;57.74
22917;DHT22;11624;53.250;7.456;2024-01-16T02:59:59;6.31;57.55
22917;DHT22;11624;53.250;7.456;2024-01-16T03:02:27;6.26;57.38
22917;DHT22;11624;53.250;7.456;2024-01-16T03:04:57;6.28;57.65
22917;DHT22;11624;53.250;7.456;2024-01-16T03:07:25;6.33;57.48
22917;DHT22;11624;53.250;7.456;2024-01-16T03:09:53;6.36;57.13
22917;DHT22;11624;53.250;7.456;2024-01-16T03:12:22;6.33;56.82
22917;DHT22;11624;53.250;7.456;2024-01-16T03:14:50;6.29;56.75
22917;DHT22;11624;53.250;7.456;2024-01-16T03:17:21;6.33;56.91
22917;DHT22;11624;53.250;7.456;2024-01-16T03:19:50;6.30;56.80
22917;DHT22;11624;53.250;7.456;2024-01-16T03:22:18;6.34;56.64
22917;DHT22;11624;53.250;7.456;2024-01-16T03:24:47;6.34;56.48
22917;DHT22;11624;53.250;7.456;2024-01-16T03:27:15;6.34;56.32
22917;DHT22;11624;53.250;7.456;2024-01-16T03:29:44;6.25;56.10
22917;DHT22;11624;53.250;7.456;2024-01-16T03:32:13;6.15;56.36
22917;DHT22;11624;53.250;7.456;2024-01-16T03:34:43;6.11;56.00
22917;DHT22;11624;53.250;7.456;2024-01-16T03:37:11;6.07;56.21
22917;DHT22;11624;53.250;7.456;2024-01-16T03:39:39;6.00;56.19
22917;DHT22;11624;53.250;7.456;2024-01-16T03:42:08;5.96;56.27
22917;DHT22;11624;53.250;7.456;2024-01-16T03:44:38;5.84;56.45
22917;DHT22;11624;53.250;7.456;2024-01-16T03:47:08;5.84;56.48
22917;DHT22;11624;53.250;7.456;2024-01-16T03:49:36;5.80;56.52
22917;DHT22;11624;53.250;7.456;2024-01-16T03:52:07;5.81;56.53
22917;DHT22;11624;53.250;7.456;2024-01-16T03:54:35;5.87;56.32
22917;DHT22;11624;53.250;7.456;2024-01-16T03:57:04;5.91;56.19
22917;DHT22;11624;53.250;7.456;2024-01-16T03:59:32;5.87;56.12
22917;DHT22;11624;53.250;7.456;2024-01-16T04:02:01;5.83;56.16
22917;DHT22;11624;53.250;7.456;2024-01-16T04:04:30;5.81;56.13
22917;DHT22;11624;53.250;7.456;2024-01-16T04:06:59;5.77;56.19
22917;DHT22;11624;53.250;7.456;2024-01-16T04:09:29;5.78;56.13
22917;DHT22;11624;53.250;7.456;2024-01-16T04:11:57;5.79;56.09
22917;DHT22;11624;53.250;7.456;2024-01-16T04:14:26;5.76;56.13
22917;DHT22;11624;53.250;7.456;2024-01-16T04:16:54;5.74;56.23
22917;DHT22;11624;53.250;7.456;2024-01-16T04:19:23;5.76;56.25
22917;DHT22;11624;53.250;7.456;2024-01-16T04:21:51;5.74;56.42
22917;DHT22;11624;53.250;7.456;2024-01-16T04:24:20;5.77;56.46
22917;DHT22;11624;53.250;7.456;2024-01-16T04:26:50;5.77;56.55
22917;DHT22;11624;53.250;7.456;2024-01-16T04:29:18;5.82;56.52
22917;DHT22;11624;53.250;7.456;2024-01-16T04:31:47;5.83;56.63
22917;DHT22;11624;53.250;7.456;2024-01-16T04:34:16;5.87;56.46
22917;DHT22;11624;53.250;7.456;2024-01-16T04:36:44;5.86;56.62
22917;DHT22;11624;53.250;7.456;2024-01-16T04:39:14;5.91;56.56
22917;DHT22;11624;53.250;7.456;2024-01-16T04:41:42;5.93;56.64
22917;DHT22;11624;53.250;7.456;2024-01-16T04:44:12;5.96;56.59
22917;DHT22;11624;53.250;7.456;2024-01-16T04:46:40;5.98;56.50
22917;DHT22;11624;53.250;7.456;2024-01-16T04:49:09;6.04;56.56
22917;DHT22;11624;53.250;7.456;2024-01-16T04:51:38;6.07;56.34
22917;DHT22;11624;53.250;7.456;2024-01-16T04:54:07;6.08;56.60
22917;DHT22;11624;53.250;7.456;2024-01-16T04:56:35;6.05;56.75
22917;DHT22;11624;53.250;7.456;2024-01-16T04:59:04;6.04;56.66
22917;DHT22;11624;53.250;7.456;2024-01-16T05:01:34;6.00;56.66
22917;DHT22;11624;53.250;7.456;2024-01-16T05:04:02;6.05;56.58
22917;DHT22;11624;53.250;7.456;2024-01-16T05:06:32;6.05;56.66
22917;DHT22;11624;53.250;7.456;2024-01-16T05:09:00;6.05;56.56
22917;DHT22;11624;53.250;7.456;2024-01-16T05:11:30;6.06;56.54
22917;DHT22;11624;53.250;7.456;2024-01-16T05:13:58;6.10;56.30
22917;DHT22;11624;53.250;7.456;2024-01-16T05:16:27;6.08;56.25
22917;DHT22;11624;53.250;7.456;2024-01-16T05:18:57;6.07;56.34
22917;DHT22;11624;53.250;7.456;2024-01-16T05:21:25;6.10;56.23
22917;DHT22;11624;53.250;7.456;2024-01-16T05:23:54;6.10;56.28
22917;DHT22;11624;53.250;7.456;2024-01-16T05:26:23;6.12;56.28
22917;DHT22;11624;53.250;7.456;2024-01-16T05:28:51;6.12;56.51
22917;DHT22;11624;53.250;7.456;2024-01-16T05:31:20;6.11;56.34
22917;DHT22;11624;53.250;7.456;2024-01-16T05:33:48;6.15;56.50
22917;DHT22;11624;53.250;7.456;2024-01-16T05:36:18;6.20;56.33
22917;DHT22;11624;53.250;7.456;2024-01-16T05:38:47;6.17;56.47
22917;DHT22;11624;53.250;7.456;2024-01-16T05:41:17;6.19;56.41
22917;DHT22;11624;53.250;7.456;2024-01-16T05:43:46;6.21;56.14
22917;DHT22;11624;53.250;7.456;2024-01-16T05:46:15;6.20;56.15
22917;DHT22;11624;53.250;7.456;2024-01-16T05:48:44;6.24;55.98
22917;DHT22;11624;53.250;7.456;2024-01-16T05:51:13;6.28;55.81
22917;DHT22;11624;53.250;7.456;2024-01-16T05:53:43;6.28;55.78
22917;DHT22;11624;53.250;7.456;2024-01-16T05:56:11;6.27;55.97
22917;DHT22;11624;53.250;7.456;2024-01-16T05:58:40;6.27;56.09
22917;DHT22;11624;53.250;7.456;2024-01-16T06:01:08;6.25;55.90
22917;DHT22;11624;53.250;7.456;2024-01-16T06:03:40;6.35;55.68
22917;DHT22;11624;53.250;7.456;2024-01-16T06:06:12;6.31;55.56
22917;DHT22;11624;53.250;7.456;2024-01-16T06:08:41;6.30;55.75
22917;DHT22;11624;53.250;7.456;2024-01-16T06:11:10;6.31;55.57
22917;DHT22;11624;53.250;7.456;2024-01-16T06:13:41;6.37;55.54
22917;DHT22;11624;53.250;7.456;2024-01-16T06:16:09;6.37;55.53
22917;DHT22;11624;53.250;7.456;2024-01-16T06:18:38;6.37;55.77
22917;DHT22;11624;53.250;7.456;2024-01-16T06:21:06;6.40;55.65
22917;DHT22;11624;53.250;7.456;2024-01-16T06:23:35;6.42;55.60
22917;DHT22;11624;53.250;7.456;2024-01-16T06:26:04;6.43;55.74
22917;DHT22;11624;53.250;7.456;2024-01-16T06:28:34;6.50;55.50
22917;DHT22;11624;53.250;7.456;2024-01-16T06:31:03;6.49;55.64
22917;DHT22;11624;53.250;7.456;2024-01-16T06:33:31;6.52;55.67
22917;DHT22;11624;53.250;7.456;2024-01-16T06:36:01;6.59;55.64
22917;DHT22;11624;53.250;7.456;2024-01-16T06:38:31;6.63;55.55
22917;DHT22;11624;53.250;7.456;2024-01-16T06:40:59;6.61;55.62
22917;DHT22;11624;53.250;7.456;2024-01-16T06:43:28;6.58;55.86
22917;DHT22;11624;53.250;7.456;2024-01-16T06:45:58;6.54;55.84
22917;DHT22;11624;53.250;7.456;2024-01-16T06:48:27;6.50;56.35
22917;DHT22;11624;53.250;7.456;2024-01-16T06:50:56;6.52;56.50
22917;DHT22;11624;53.250;7.456;2024-01-16T06:53:24;6.54;56.56
22917;DHT22;11624;53.250;7.456;2024-01-16T06:55:52;6.56;56.59
22917;DHT22;11624;53.250;7.456;2024-01-16T06:58:21;6.53;56.70
22917;DHT22;11624;53.250;7.456;2024-01-16T07:00:48;6.58;56.62
22917;DHT22;11624;53.250;7.456;2024-01-16T07:03:18;6.66;56.35
22917;DHT22;11624;53.250;7.456;2024-01-16T07:05:47;6.67;56.38
22917;DHT22;11624;53.250;7.456;2024-01-16T07:08:16;6.65;56.32
22917;DHT22;11624;53.250;7.456;2024-01-16T07:10:44;6.65;56.28
22917;DHT22;11624;53.250;7.456;2024-01-16T07:13:13;6.64;56.30
22917;DHT22;11624;53.250;7.456;2024-01-16T07:15:41;6.65;56.23
22917;DHT22;11624;53.250;7.456;2024-01-16T07:18:10;6.63;56.11
22917;DHT22;11624;53.250;7.456;2024-01-16T07:20:40;6.55;56.06
22917;DHT22;11624;53.250;7.456;2024-01-16T07:23:09;6.50;56.33
22917;DHT22;11624;53.250;7.456;2024-01-16T07:25:37;6.55;56.16
22917;DHT22;11624;53.250;7.456;2024-01-16T07:28:07;6.49;56.57
22917;DHT22;11624;53.250;7.456;2024-01-16T07:30:35;6.52;56.58
22917;DHT22;11624;53.250;7.456;2024-01-16T07:33:05;6.54;56.85
22917;DHT22;11624;53.250;7.456;2024-01-16T07:35:33;6.58;56.90
22917;DHT22;11624;53.250;7.456;2024-01-16T07:38:03;6.54;57.17
22917;DHT22;11624;53.250;7.456;2024-01-16T07:40:32;6.52;57.39
22917;DHT22;11624;53.250;7.456;2024-01-16T07:43:00;6.48;57.74
22917;DHT22;11624;53.250;7.456;2024-01-16T07:45:29;6.50;57.83
22917;DHT22;11624;53.250;7.456;2024-01-16T07:47:57;6.50;57.83
22917;DHT22;11624;53.250;7.456;2024-01-16T07:50:26;6.45;58.00
22917;DHT22;11624;53.250;7.456;2024-01-16T07:52:54;6.49;58.02
22917;DHT22;11624;53.250;7.456;2024-01-16T07:55:24;6.51;57.96
22917;DHT22;11624;53.250;7.456;2024-01-16T07:57:54;6.57;57.99
22917;DHT22;11624;53.250;7.456;2024-01-16T08:00:22;6.55;58.03
22917;DHT22;11624;53.250;7.456;2024-01-16T08:02:51;6.66;57.99
22917;DHT22;11624;53.250;7.456;2024-01-16T08:05:19;6.69;58.09
22917;DHT22;11624;53.250;7.456;2024-01-16T08:07:49;6.76;57.92
22917;DHT22;11624;53.250;7.456;2024-01-16T08:10:17;6.71;57.93
22917;DHT22;11624;53.250;7.456;2024-01-16T08:12:47;6.74;57.87
22917;DHT22;11624;53.250;7.456;2024-01-16T08:15:16;6.75;57.62
22917;DHT22;11624;53.250;7.456;2024-01-16T08:17:44;6.79;57.66
22917;DHT22;11624;53.250;7.456;2024-01-16T08:20:13;6.81;57.43
22917;DHT22;11624;53.250;7.456;2024-01-16T08:22:42;6.83;57.50
22917;DHT22;11624;53.250;7.456;2024-01-16T08:25:10;6.84;57.22
22917;DHT22;11624;53.250;7.456;2024-01-16T08:27:39;6.80;57.39
22917;DHT22;11624;53.250;7.456;2024-01-16T08:30:09;6.86;56.99
22917;DHT22;11624;53.250;7.456;2024-01-16T08:32:38;6.79;57.22
22917;DHT22;11624;53.250;7.456;2024-01-16T08:35:07;6.78;57.35
22917;DHT22;11624;53.250;7.456;2024-01-16T08:37:36;6.87;57.20
22917;DHT22;11624;53.250;7.456;2024-01-16T08:40:05;6.94;56.98
22917;DHT22;11624;53.250;7.456;2024-01-16T08:42:34;6.95;56.94
22917;DHT22;11624;53.250;7.456;2024-01-16T08:45:03;6.98;56.52
22917;DHT22;11624;53.250;7.456;2024-01-16T08:47:33;6.99;56.71
22917;DHT22;11624;53.250;7.456;2024-01-16T08:50:02;6.97;56.53
22917;DHT22;11624;53.250;7.456;2024-01-16T08:52:31;6.96;56.67
22917;DHT22;11624;53.250;7.456;2024-01-16T08:55:00;6.86;56.84
22917;DHT22;11624;53.250;7.456;2024-01-16T08:57:29;6.87;56.90
22917;DHT22;11624;53.250;7.456;2024-01-16T08:59:57;6.95;56.75
22917;DHT22;11624;53.250;7.456;2024-01-16T09:02:26;6.95;56.72
22917;DHT22;11624;53.250;7.456;2024-01-16T09:04:57;7.01;56.69
22917;DHT22;11624;53.250;7.456;2024-01-16T09:07:26;7.08;56.69
22917;DHT22;11624;53.250;7.456;2024-01-16T09:09:55;7.15;56.67
22917;DHT22;11624;53.250;7.456;2024-01-16T09:12:23;7.18;56.66
22917;DHT22;11624;53.250;7.456;2024-01-16T09:14:53;7.25;56.81
22917;DHT22;11624;53.250;7.456;2024-01-16T09:17:22;7.33;56.90
22917;DHT22;11624;53.250;7.456;2024-01-16T09:19:50;7.47;56.82
22917;DHT22;11624;53.250;7.456;2024-01-16T09:22:20;7.48;56.85
22917;DHT22;11624;53.250;7.456;2024-01-16T09:24:48;7.58;56.68
22917;DHT22;11624;53.250;7.456;2024-01-16T09:27:17;7.61;56.24
22917;DHT22;11624;53.250;7.456;2024-01-16T09:29:45;7.62;56.29
22917;DHT22;11624;53.250;7.456;2024-01-16T09:32:14;7.59;56.36
22917;DHT22;11624;53.250;7.456;2024-01-16T09:34:42;7.65;56.28
22917;DHT22;11624;53.250;7.456;2024-01-16T09:37:11;7.74;56.32
22917;DHT22;11624;53.250;7.456;2024-01-16T09:39:43;7.79;55.84
22917;DHT22;11624;53.250;7.456;2024-01-16T09:42:11;7.77;55.95
22917;DHT22;11624;53.250;7.456;2024-01-16T09:44:40;7.79;55.55
22917;DHT22;11624;53.250;7.456;2024-01-16T09:47:10;7.79;55.51
22917;DHT22;11624;53.250;7.456;2024-01-16T09:49:39;7.81;55.79
22917;DHT22;11624;53.250;7.456;2024-01-16T09:52:08;7.84;55.68
22917;DHT22;11624;53.250;7.456;2024-01-16T09:54:37;7.83;55.68
22917;DHT22;11624;53.250;7.456;2024-01-16T09:57:07;7.89;55.70
22917;DHT22;11624;53.250;7.456;2024-01-16T09:59:39;7.91;55.90
22917;DHT22;11624;53.250;7.456;2024-01-16T10:02:10;7.81;55.76
22917;DHT22;11624;53.250;7.456;2024-01-16T10:04:39;7.68;55.90
22917;DHT22;11624;53.250;7.456;2024-01-16T10:07:10;7.64;55.87
22917;DHT22;11624;53.250;7.456;2024-01-16T10:09:40;7.65;56.00
22917;DHT22;11624;53.250;7.456;2024-01-16T10:12:10;7.69;56.00
22917;DHT22;11624;53.250;7.456;2024-01-16T10:14:39;7.74;55.87
22917;DHT22;11624;53.250;7.456;2024-01-16T10:17:08;7.74;56.01
22917;DHT22;11624;53.250;7.456;2024-01-16T10:19:50;7.84;55.70
22917;DHT22;11624;53.250;7.456;2024-01-16T10:22:20;8.05;55.87
22917;DHT22;11624;53.250;7.456;2024-01-16T10:25:04;8.11;55.19
22917;DHT22;11624;53.250;7.456;2024-01-16T10:27:35;8.11;55.42
22917;DHT22;11624;53.250;7.456;2024-01-16T10:30:05;8.11;55.71
22917;DHT22;11624;53.250;7.456;2024-01-16T10:32:35;8.16;55.71
22917;DHT22;11624;53.250;7.456;2024-01-16T10:35:06;8.28;55.54
22917;DHT22;11624;53.250;7.456;2024-01-16T10:37:43;8.35;55.13
22917;DHT22;11624;53.250;7.456;2024-01-16T10:40:15;8.51;55.36
22917;DHT22;11624;53.250;7.456;2024-01-16T10:42:57;8.71;54.55
22917;DHT22;11624;53.250;7.456;2024-01-16T10:45:26;9.06;55.07
22917;DHT22;11624;53.250;7.456;2024-01-16T10:48:01;9.11;53.63
22917;DHT22;11624;53.250;7.456;2024-01-16T10:50:31;9.18;54.18
22917;DHT22;11624;53.250;7.456;2024-01-16T10:53:04;9.12;53.00
22917;DHT22;11624;53.250;7.456;2024-01-16T10:55:37;9.14;52.56
22917;DHT22;11624;53.250;7.456;2024-01-16T10:58:09;9.18;52.86
22917;DHT22;11624;53.250;7.456;2024-01-16T11:00:42;9.20;52.88
22917;DHT22;11624;53.250;7.456;2024-01-16T11:03:18;9.11;52.93
22917;DHT22;11624;53.250;7.456;2024-01-16T11:05:47;9.10;52.79
22917;DHT22;11624;53.250;7.456;2024-01-16T11:08:17;8.95;52.67
22917;DHT22;11624;53.250;7.456;2024-01-16T11:10:47;8.88;52.63
22917;DHT22;11624;53.250;7.456;2024-01-16T11:13:18;8.79;52.93
22917;DHT22;11624;53.250;7.456;2024-01-16T11:15:49;8.75;53.01
22917;DHT22;11624;53.250;7.456;2024-01-16T11:18:19;8.70;53.17
22917;DHT22;11624;53.250;7.456;2024-01-16T11:20:48;8.62;53.33
22917;DHT22;11624;53.250;7.456;2024-01-16T11:23:33;8.68;53.61
22917;DHT22;11624;53.250;7.456;2024-01-16T11:26:26;8.73;53.43
22917;DHT22;11624;53.250;7.456;2024-01-16T11:28:57;8.81;53.83
22917;DHT22;11624;53.250;7.456;2024-01-16T11:31:31;8.92;53.54
22917;DHT22;11624;53.250;7.456;2024-01-16T11:34:00;8.98;53.75
22917;DHT22;11624;53.250;7.456;2024-01-16T11:36:57;8.94;53.26
22917;DHT22;11624;53.250;7.456;2024-01-16T11:39:26;9.00;53.39
22917;DHT22;11624;53.250;7.456;2024-01-16T11:41:55;8.89;53.28
22917;DHT22;11624;53.250;7.456;2024-01-16T11:44:42;8.79;52.92
22917;DHT22;11624;53.250;7.456;2024-01-16T11:47:16;8.71;53.43
22917;DHT22;11624;53.250;7.456;2024-01-16T11:49:46;8.70;53.80
22917;DHT22;11624;53.250;7.456;2024-01-16T11:52:15;8.66;54.01
22917;DHT22;11624;53.250;7.456;2024-01-16T11:55:25;8.61;53.59
22917;DHT22;11624;53.250;7.456;2024-01-16T11:58:03;8.53;54.01
22917;DHT22;11624;53.250;7.456;2024-01-16T12:00:40;8.47;54.45
22917;DHT22;11624;53.250;7.456;2024-01-16T12:03:10;8.58;54.44
22917;DHT22;11624;53.250;7.456;2024-01-16T12:06:01;8.51;54.46
22917;DHT22;11624;53.250;7.456;2024-01-16T12:08:33;8.34;54.82
22917;DHT22;11624;53.250;7.456;2024-01-16T12:11:04;8.41;54.87
22917;DHT22;11624;53.250;7.456;2024-01-16T12:13:32;8.33;55.02
22917;DHT22;11624;53.250;7.456;2024-01-16T12:16:03;8.33;54.92
22917;DHT22;11624;53.250;7.456;2024-01-16T12:18:32;8.31;55.26
22917;DHT22;11624;53.250;7.456;2024-01-16T12:21:11;8.27;55.49
22917;DHT22;11624;53.250;7.456;2024-01-16T12:23:40;8.35;55.15
22917;DHT22;11624;53.250;7.456;2024-01-16T12:26:22;8.36;55.16
22917;DHT22;11624;53.250;7.456;2024-01-16T12:28:51;8.38;55.04
22917;DHT22;11624;53.250;7.456;2024-01-16T12:31:28;8.35;55.11
22917;DHT22;11624;53.250;7.456;2024-01-16T12:34:05;8.35;55.07
22917;DHT22;11624;53.250;7.456;2024-01-16T12:36:36;8.36;55.11
22917;DHT22;11624;53.250;7.456;2024-01-16T12:39:05;8.23;55.24
22917;DHT22;11624;53.250;7.456;2024-01-16T12:41:41;8.28;55.15
22917;DHT22;11624;53.250;7.456;2024-01-16T12:44:11;8.23;55.26
22917;DHT22;11624;53.250;7.456;2024-01-16T12:46:53;8.16;54.89
22917;DHT22;11624;53.250;7.456;2024-01-16T12:49:23;8.17;55.49
22917;DHT22;11624;53.250;7.456;2024-01-16T12:52:16;8.04;55.45
22917;DHT22;11624;53.250;7.456;2024-01-16T12:54:45;8.07;55.87
22917;DHT22;11624;53.250;7.456;2024-01-16T12:57:17;8.13;55.56
22917;DHT22;11624;53.250;7.456;2024-01-16T12:59:47;8.13;55.55
22917;DHT22;11624;53.250;7.456;2024-01-16T13:02:22;8.11;55.29
22917;DHT22;11624;53.250;7.456;2024-01-16T13:04:58;8.02;55.39
22917;DHT22;11624;53.250;7.456;2024-01-16T13:07:27;8.03;55.91
22917;DHT22;11624;53.250;7.456;2024-01-16T13:10:09;7.99;55.64
22917;DHT22;11624;53.250;7.456;2024-01-16T13:12:39;8.01;56.03
22917;DHT22;11624;53.250;7.456;2024-01-16T13:15:08;8.05;56.03
22917;DHT22;11624;53.250;7.456;2024-01-16T13:17:40;8.03;56.09
22917;DHT22;11624;53.250;7.456;2024-01-16T13:20:09;8.05;56.16
22917;DHT22;11624;53.250;7.456;2024-01-16T13:22:40;8.05;56.20
22917;DHT22;11624;53.250;7.456;2024-01-16T13:25:14;8.09;56.13
22917;DHT22;11624;53.250;7.456;2024-01-16T13:27:42;8.11;56.19
22917;DHT22;11624;53.250;7.456;2024-01-16T13:30:12;8.11;56.17
22917;DHT22;11624;53.250;7.456;2024-01-16T13:32:43;8.19;56.19
22917;DHT22;11624;53.250;7.456;2024-01-16T13:35:12;8.32;56.39
22917;DHT22;11624;53.250;7.456;2024-01-16T13:37:40;8.39;56.15
22917;DHT22;11624;53.250;7.456;2024-01-16T13:40:09;8.39;56.09
22917;DHT22;11624;53.250;7.456;2024-01-16T13:42:42;8.26;55.52
22917;DHT22;11624;53.250;7.456;2024-01-16T13:45:11;8.16;55.57
22917;DHT22;11624;53.250;7.456;2024-01-16T13:47:40;8.12;55.43
22917;DHT22;11624;53.250;7.456;2024-01-16T13:50:11;7.99;55.71
22917;DHT22;11624;53.250;7.456;2024-01-16T13:52:40;8.05;55.82
22917;DHT22;11624;53.250;7.456;2024-01-16T13:55:09;8.06;55.65
22917;DHT22;11624;53.250;7.456;2024-01-16T13:57:38;8.01;55.74
22917;DHT22;11624;53.250;7.456;2024-01-16T14:00:10;7.96;55.68
22917;DHT22;11624;53.250;7.456;2024-01-16T14:02:41;7.85;55.45
22917;DHT22;11624;53.250;7.456;2024-01-16T14:05:12;7.83;55.58
22917;DHT22;11624;53.250;7.456;2024-01-16T14:07:43;7.87;55.75
22917;DHT22;11624;53.250;7.456;2024-01-16T14:10:14;7.87;55.25
22917;DHT22;11624;53.250;7.456;2024-01-16T14:12:43;7.86;55.66
22917;DHT22;11624;53.250;7.456;2024-01-16T14:15:14;7.88;55.61
22917;DHT22;11624;53.250;7.456;2024-01-16T14:17:48;7.88;55.71
22917;DHT22;11624;53.250;7.456;2024-01-16T14:20:19;7.85;55.62
22917;DHT22;11624;53.250;7.456;2024-01-16T14:22:54;8.03;55.31
22917;DHT22;11624;53.250;7.456;2024-01-16T14:25:23;8.00;55.13
22917;DHT22;11624;53.250;7.456;2024-01-16T14:27:56;7.94;54.85
22917;DHT22;11624;53.250;7.456;2024-01-16T14:30:26;7.89;55.29
22917;DHT22;11624;53.250;7.456;2024-01-16T14:32:55;7.94;55.46
22917;DHT22;11624;53.250;7.456;2024-01-16T14:35:25;8.01;55.24
22917;DHT22;11624;53.250;7.456;2024-01-16T14:37:53;8.07;55.16
22917;DHT22;11624;53.250;7.456;2024-01-16T14:40:22;8.20;55.77
22917;DHT22;11624;53.250;7.456;2024-01-16T14:42:53;8.45;55.16
22917;DHT22;11624;53.250;7.456;2024-01-16T14:45:24;8.43;54.04
22917;DHT22;11624;53.250;7.456;2024-01-16T14:47:53;8.45;53.64
22917;DHT22;11624;53.250;7.456;2024-01-16T14:50:22;8.35;53.68
22917;DHT22;11624;53.250;7.456;2024-01-16T14:52:53;8.36;53.59
22917;DHT22;11624;53.250;7.456;2024-01-16T14:55:21;8.34;53.45
22917;DHT22;11624;53.250;7.456;2024-01-16T14:57:52;8.20;53.70
22917;DHT22;11624;53.250;7.456;2024-01-16T15:00:27;8.17;53.68
22917;DHT22;11624;53.250;7.456;2024-01-16T15:02:57;8.15;53.56
22917;DHT22;11624;53.250;7.456;2024-01-16T15:05:26;8.16;53.66
22917;DHT22;11624;53.250;7.456;2024-01-16T15:07:56;8.04;53.73
22917;DHT22;11624;53.250;7.456;2024-01-16T15:10:25;8.14;53.67
22917;DHT22;11624;53.250;7.456;2024-01-16T15:12:53;8.16;53.36
22917;DHT22;11624;53.250;7.456;2024-01-16T15:15:22;8.00;53.45
22917;DHT22;11624;53.250;7.456;2024-01-16T15:17:50;8.01;53.20
22917;DHT22;11624;53.250;7.456;2024-01-16T15:20:19;7.93;53.39
22917;DHT22;11624;53.250;7.456;2024-01-16T15:22:48;7.93;53.25
22917;DHT22;11624;53.250;7.456;2024-01-16T15:25:20;7.85;53.23
22917;DHT22;11624;53.250;7.456;2024-01-16T15:27:51;7.74;53.40
22917;DHT22;11624;53.250;7.456;2024-01-16T15:30:21;7.75;53.24
22917;DHT22;11624;53.250;7.456;2024-01-16T15:32:55;7.57;53.46
22917;DHT22;11624;53.250;7.456;2024-01-16T15:35:23;7.55;53.62
22917;DHT22;11624;53.250;7.456;2024-01-16T15:37:52;7.58;53.43
22917;DHT22;11624;53.250;7.456;2024-01-16T15:40:23;7.48;53.41
22917;DHT22;11624;53.250;7.456;2024-01-16T15:42:51;7.45;53.62
22917;DHT22;11624;53.250;7.456;2024-01-16T15:45:21;7.41;53.57
22917;DHT22;11624;53.250;7.456;2024-01-16T15:47:53;7.39;53.65
22917;DHT22;11624;53.250;7.456;2024-01-16T15:50:22;7.20;53.97
22917;DHT22;11624;53.250;7.456;2024-01-16T15:52:50;7.15;54.42
22917;DHT22;11624;53.250;7.456;2024-01-16T15:55:19;7.04;54.65
22917;DHT22;11624;53.250;7.456;2024-01-16T15:57:49;7.13;54.34
22917;DHT22;11624;53.250;7.456;2024-01-16T16:00:17;7.11;54.49
22917;DHT22;11624;53.250;7.456;2024-01-16T16:02:46;7.11;54.57